Sunday, November 23, 2014
21:09 UTC
  |  Log In   |  Register Free
Airport Search:

Live Oak County Airport
(8T6)

Live Oak County Airport Diagram
No Airport Diagram Available

FAA data valid effective November 13, 2014 - January 08, 2015 (unless otherwise noted).

 
 
 
 
 
 
 
 
 
 
 
 
 
 

Current Aviation Weather for Live Oak County Airport (8T6)

METAR data is unavailable for 8T6. The nearest METAR location is at KBEA (17.2 nm SE from 8T6).

The most recent METAR observation for KBEA was updated at: 2015
METAR Summary (Translated METAR)
KBEA
231955Z AUTO 24011G14KT 10SM CLR 28/07 A2961 RMK AO2 T02790069
(17.2 nm SE from 8T6)
KNOG
231956Z AUTO 27013G21KT 10SM CLR 30/07 A2963 RMK AO2 SLP013 T03000072 $
(27.9 nm SE from 8T6)
TAF Summary (Translated TAF)
KALI
(39.3 nm SW from KBEA)
231729Z 2318/2418 22012KT P6SM SKC FM240000 25005KT P6SM SKC FM240800 36012KT P6SM SCT250 FM241500 36015G20KT P6SM SCT250
  Airport Weather Conditions for 8T6

Current weather conditions are
not available for 8T6


The nearest NOAA weather station
is at BEA, (17.2 nm SE from 8T6)
  
 Current Weather at BEA
82° F
Fair
Southwest winds at 12.7 mph
BEA NOAA Radar

Pressure: 29.61 in
Humidity: 26%
Wind: from the Southwest at 12.7 gusting to 16.1 MPH (11 gusting to 14 KT)
Dew Point: 44.4°F
Visibility: 10.00 mi


Airport Weather Forecast for 8T6

Translated METAR and TAF for KBEA
Translated METAR for KBEA (2104 UTC 23 November 2014)
found at http://aviationweather.gov/adds/metars/
 
METAR text: KBEA 232055Z AUTO 24009G18KT 10SM CLR 28/07 A2959 RMK AO2 T02810065
Conditions at: KBEA (BEEVILLE MUNI , TX, US) observed 2055 UTC 23 November 2014
Temperature: 28.1°C (83°F)
Dewpoint: 6.5°C (44°F) [RH = 25%]
Pressure (altimeter): 29.59 inches Hg (1002.1 mb)
Winds: from the WSW (240 degrees) at 10 MPH (9 knots; 4.7 m/s)
gusting to 21 MPH (18 knots; 9.4 m/s)
Visibility: 10 or more miles (16+ km)
Ceiling: at least 12,000 feet AGL
Clouds: sky clear below 12,000 feet AGL
Weather: automated observation with no human augmentation;
there may or may not be significant weather present at this time
Translated TAF for KBEA

There is no translated TAF available for this airport

Find All Airport Services Find A Hotel Find A Rental Car Find A Golf Course Find A Restaurant $100 Hamburger



FBO's on the Field
FBO Company Facility Photos Services Transportation Aviation Fuel Prices: Prices include tax
Catering Weather Repair Courtesy Rental Type 100LL JetA JetA+ MOGAS 8087
 
Live Oak Co. Airport

This FBO has not yet been rated
FS:Avfuel
Last Updated: Nov-10
Login to update fuel prices
SS:
Contact Live Oak Co. AirportMore FBO Information
 
Add another FBO Facility Photos Catering Weather Repair Courtesy Rental Type 100LL JetA JetA+ MOGAS 8087
Services Transportation Aviation Fuel Prices: Prices include tax


model-print
model-print
model-print
model-print